Time,TemperatureF,DewpointF,PressureIn,WindDirection,WindDirectionDegrees,WindSpeedMPH,WindSpeedGustMPH,Humidity,HourlyPrecipIn,Conditions,Clouds,dailyrainin,SoftwareType,DateUTC
2013-12-01 00:00:00,30.8,28.8,30.30,SSW,196,0.0,0.0,92,0.00,,,0.00,Wunderground v.1.13,2013-12-01 05:00:00,
2013-12-01 00:10:00,30.8,29.0,30.30,SSW,196,0.0,0.0,93,0.00,,,0.00,Wunderground v.1.13,2013-12-01 05:10:00,
2013-12-01 00:20:00,30.6,28.8,30.30,SSW,196,0.0,0.0,93,0.00,,,0.00,Wunderground v.1.13,2013-12-01 05:20:00,
2013-12-01 00:30:00,30.5,28.7,30.30,SSW,196,0.0,0.0,93,0.00,,,0.00,Wunderground v.1.13,2013-12-01 05:30:00,
2013-12-01 00:40:00,30.3,28.8,30.30,SSW,196,0.0,0.0,94,0.00,,,0.00,Wunderground v.1.13,2013-12-01 05:40:00,
2013-12-01 00:50:00,30.0,28.5,30.30,SSW,196,0.0,0.0,94,0.00,,,0.00,Wunderground v.1.13,2013-12-01 05:50:00,
2013-12-01 01:00:00,29.7,28.2,30.29,SSW,196,0.0,0.0,94,0.00,,,0.00,Wunderground v.1.13,2013-12-01 06:00:00,
2013-12-01 01:10:00,29.6,28.1,30.29,SSW,196,0.0,0.0,94,0.00,,,0.00,Wunderground v.1.13,2013-12-01 06:10:00,
2013-12-01 01:20:00,29.3,27.8,30.29,SSW,196,0.0,0.0,94,0.00,,,0.00,Wunderground v.1.13,2013-12-01 06:20:00,
2013-12-01 01:30:00,29.2,27.7,30.29,SSW,196,0.0,0.0,94,0.00,,,0.00,Wunderground v.1.13,2013-12-01 06:30:00,
2013-12-01 01:40:00,29.0,27.7,30.29,SSW,196,0.0,0.0,95,0.00,,,0.00,Wunderground v.1.13,2013-12-01 06:40:00,
2013-12-01 01:50:00,29.0,27.7,30.29,SSW,196,0.0,0.0,95,0.00,,,0.00,Wunderground v.1.13,2013-12-01 06:50:00,
2013-12-01 02:00:00,29.0,27.7,30.29,SSW,196,0.0,0.0,95,0.00,,,0.00,Wunderground v.1.13,2013-12-01 07:00:00,
2013-12-01 02:10:00,28.9,27.6,30.29,SSW,196,0.0,0.0,95,0.00,,,0.00,Wunderground v.1.13,2013-12-01 07:10:00,
2013-12-01 02:20:00,28.7,27.4,30.29,SSW,196,0.0,0.0,95,0.00,,,0.00,Wunderground v.1.13,2013-12-01 07:20:00,
2013-12-01 02:30:00,28.7,27.4,30.29,SSW,196,0.0,0.0,95,0.00,,,0.00,Wunderground v.1.13,2013-12-01 07:30:00,
2013-12-01 02:40:00,28.6,27.4,30.28,SSW,196,0.0,0.0,95,0.00,,,0.00,Wunderground v.1.13,2013-12-01 07:40:00,
2013-12-01 02:50:00,28.4,27.4,30.28,SSW,196,0.0,0.0,96,0.00,,,0.00,Wunderground v.1.13,2013-12-01 07:50:00,
2013-12-01 03:00:00,28.3,27.3,30.28,SSW,196,0.0,0.0,96,0.00,,,0.00,Wunderground v.1.13,2013-12-01 08:00:00,
2013-12-01 03:10:00,28.3,27.3,30.28,SSW,196,0.0,0.0,96,0.00,,,0.00,Wunderground v.1.13,2013-12-01 08:10:00,
2013-12-01 03:20:00,28.1,27.1,30.28,SSW,196,0.0,0.0,96,0.00,,,0.00,Wunderground v.1.13,2013-12-01 08:20:00,
2013-12-01 03:30:00,28.1,27.1,30.28,SSW,196,0.0,0.0,96,0.00,,,0.00,Wunderground v.1.13,2013-12-01 08:30:00,
2013-12-01 03:40:00,28.1,27.1,30.29,SSW,196,0.0,0.0,96,0.00,,,0.00,Wunderground v.1.13,2013-12-01 08:40:00,
2013-12-01 03:50:00,28.0,27.0,30.29,SSW,196,0.0,0.0,96,0.00,,,0.00,Wunderground v.1.13,2013-12-01 08:50:00,
2013-12-01 04:00:00,27.8,26.8,30.27,SSW,196,0.0,0.0,96,0.00,,,0.00,Wunderground v.1.13,2013-12-01 09:00:00,
2013-12-01 04:10:00,27.7,26.7,30.27,SSW,196,0.0,0.0,96,0.00,,,0.00,Wunderground v.1.13,2013-12-01 09:10:00,
2013-12-01 04:20:00,27.8,26.8,30.27,SSW,196,0.0,0.0,96,0.00,,,0.00,Wunderground v.1.13,2013-12-01 09:20:00,
2013-12-01 04:30:00,27.7,26.7,30.27,SSW,196,0.0,0.0,96,0.00,,,0.00,Wunderground v.1.13,2013-12-01 09:30:00,
2013-12-01 04:40:00,27.8,27.1,30.28,SSW,196,0.0,0.0,97,0.00,,,0.00,Wunderground v.1.13,2013-12-01 09:40:00,
2013-12-01 04:50:00,27.8,27.1,30.28,SSW,196,0.0,0.0,97,0.00,,,0.00,Wunderground v.1.13,2013-12-01 09:50:00,
2013-12-01 05:00:00,27.8,27.1,30.27,SSW,196,0.0,0.0,97,0.00,,,0.00,Wunderground v.1.13,2013-12-01 10:00:00,
2013-12-01 05:10:00,27.7,27.0,30.27,SSW,196,0.0,0.0,97,0.00,,,0.00,Wunderground v.1.13,2013-12-01 10:10:00,
2013-12-01 05:20:00,27.5,26.8,30.27,SSW,196,0.0,0.0,97,0.00,,,0.00,Wunderground v.1.13,2013-12-01 10:20:00,
2013-12-01 05:30:00,27.4,26.7,30.27,SSW,196,0.0,0.0,97,0.00,,,0.00,Wunderground v.1.13,2013-12-01 10:30:00,
2013-12-01 05:40:00,27.2,26.5,30.28,SSW,196,0.0,0.0,97,0.00,,,0.00,Wunderground v.1.13,2013-12-01 10:40:00,
2013-12-01 05:50:00,27.4,26.7,30.28,SSW,196,0.0,0.0,97,0.00,,,0.00,Wunderground v.1.13,2013-12-01 10:50:00,
2013-12-01 06:00:00,27.2,26.5,30.28,SSW,196,0.0,0.0,97,0.00,,,0.00,Wunderground v.1.13,2013-12-01 11:00:00,
2013-12-01 06:10:00,26.9,26.2,30.28,SSW,196,0.0,0.0,97,0.00,,,0.00,Wunderground v.1.13,2013-12-01 11:10:00,
2013-12-01 06:20:00,27.1,26.6,30.28,SSW,196,0.0,0.0,98,0.00,,,0.00,Wunderground v.1.13,2013-12-01 11:20:00,
2013-12-01 06:30:00,27.2,26.7,30.27,SSW,196,0.0,0.0,98,0.00,,,0.00,Wunderground v.1.13,2013-12-01 11:30:00,
2013-12-01 06:40:00,27.2,26.7,30.28,SSW,196,0.0,0.0,98,0.00,,,0.00,Wunderground v.1.13,2013-12-01 11:40:00,
2013-12-01 06:50:00,27.2,26.7,30.28,SSW,196,0.0,0.0,98,0.00,,,0.00,Wunderground v.1.13,2013-12-01 11:50:00,
2013-12-01 07:00:00,27.1,26.6,30.28,SSW,196,0.0,0.0,98,0.00,,,0.00,Wunderground v.1.13,2013-12-01 12:00:00,
2013-12-01 07:10:00,26.9,26.2,30.27,SSW,196,0.0,0.0,97,0.00,,,0.00,Wunderground v.1.13,2013-12-01 12:10:00,
2013-12-01 07:20:00,26.6,25.9,30.27,SSW,196,0.0,0.0,97,0.00,,,0.00,Wunderground v.1.13,2013-12-01 12:20:00,
2013-12-01 07:30:00,26.3,25.6,30.27,SSW,196,0.0,0.0,97,0.00,,,0.00,Wunderground v.1.13,2013-12-01 12:30:00,
2013-12-01 07:40:00,26.5,25.8,30.27,SSW,196,0.0,0.0,97,0.00,,,0.00,Wunderground v.1.13,2013-12-01 12:40:00,
2013-12-01 07:50:00,26.5,25.8,30.27,SSW,196,0.0,0.0,97,0.00,,,0.00,Wunderground v.1.13,2013-12-01 12:50:00,
2013-12-01 08:00:00,26.5,25.8,30.28,SSW,196,0.0,0.0,97,0.00,,,0.00,Wunderground v.1.13,2013-12-01 13:00:00,
2013-12-01 08:10:00,26.6,26.1,30.27,SSW,196,0.0,0.0,98,0.00,,,0.00,Wunderground v.1.13,2013-12-01 13:10:00,
2013-12-01 08:20:00,26.8,26.3,30.27,SSW,196,0.0,0.0,98,0.00,,,0.00,Wunderground v.1.13,2013-12-01 13:20:00,
2013-12-01 08:30:00,27.1,26.6,30.28,SSW,196,0.0,0.0,98,0.00,,,0.00,Wunderground v.1.13,2013-12-01 13:30:00,
2013-12-01 08:40:00,27.7,27.5,30.28,SSW,196,0.0,0.0,99,0.00,,,0.00,Wunderground v.1.13,2013-12-01 13:40:00,
2013-12-01 08:50:00,28.6,28.6,30.28,SSW,196,0.0,0.0,100,0.00,,,0.00,Wunderground v.1.13,2013-12-01 13:50:00,
2013-12-01 09:00:00,29.9,29.9,30.29,SSW,196,0.0,0.0,100,0.00,,,0.00,Wunderground v.1.13,2013-12-01 14:00:00,
2013-12-01 09:10:00,31.1,31.1,30.28,SSW,196,0.0,0.0,100,0.00,,,0.00,Wunderground v.1.13,2013-12-01 14:10:00,
2013-12-01 09:20:00,31.5,31.5,30.28,SSW,196,0.0,0.0,100,0.00,,,0.00,Wunderground v.1.13,2013-12-01 14:20:00,
2013-12-01 09:30:00,32.1,32.1,30.28,SSW,196,0.0,0.0,100,0.00,,,0.00,Wunderground v.1.13,2013-12-01 14:30:00,
2013-12-01 09:40:00,32.7,32.7,30.27,SSW,196,0.0,0.0,100,0.00,,,0.00,Wunderground v.1.13,2013-12-01 14:40:00,
2013-12-01 09:50:00,33.6,33.3,30.27,SSW,196,0.0,0.0,99,0.00,,,0.00,Wunderground v.1.13,2013-12-01 14:50:00,
2013-12-01 10:00:00,34.5,33.7,30.27,SSW,196,0.0,0.0,97,0.00,,,0.00,Wunderground v.1.13,2013-12-01 15:00:00,
2013-12-01 10:10:00,35.4,34.1,30.26,SSW,196,0.0,0.0,95,0.00,,,0.00,Wunderground v.1.13,2013-12-01 15:10:00,
2013-12-01 10:20:00,36.7,34.3,30.26,SSW,196,0.0,0.0,91,0.00,,,0.00,Wunderground v.1.13,2013-12-01 15:20:00,
2013-12-01 10:30:00,39.4,35.0,30.26,SSW,198,0.0,0.0,84,0.00,,,0.00,Wunderground v.1.13,2013-12-01 15:30:00,
2013-12-01 10:40:00,40.4,35.0,30.25,SSW,198,0.0,0.0,81,0.00,,,0.00,Wunderground v.1.13,2013-12-01 15:40:00,
2013-12-01 10:50:00,40.7,35.0,30.25,SSW,198,0.0,0.0,80,0.00,,,0.00,Wunderground v.1.13,2013-12-01 15:50:00,
2013-12-01 11:00:00,41.2,34.9,30.24,SSW,198,0.0,0.0,78,0.00,,,0.00,Wunderground v.1.13,2013-12-01 16:00:00,
2013-12-01 11:10:00,42.1,33.7,30.23,SSW,198,0.0,1.0,72,0.00,,,0.00,Wunderground v.1.13,2013-12-01 16:10:00,
2013-12-01 11:20:00,42.8,32.2,30.23,SSW,198,0.0,0.0,66,0.00,,,0.00,Wunderground v.1.13,2013-12-01 16:20:00,
2013-12-01 11:30:00,44.2,32.4,30.21,SSW,199,0.0,0.0,63,0.00,,,0.00,Wunderground v.1.13,2013-12-01 16:30:00,
2013-12-01 11:40:00,45.1,32.4,30.20,NNE,24,0.0,1.0,61,0.00,,,0.00,Wunderground v.1.13,2013-12-01 16:40:00,
2013-12-01 11:50:00,45.9,32.4,30.20,NNE,26,0.0,0.0,59,0.00,,,0.00,Wunderground v.1.13,2013-12-01 16:50:00,
2013-12-01 12:00:00,46.4,32.0,30.19,NE,52,1.0,1.0,57,0.00,,,0.00,Wunderground v.1.13,2013-12-01 17:00:00,
2013-12-01 12:10:00,48.2,32.8,30.18,NE,52,0.0,0.0,55,0.00,,,0.00,Wunderground v.1.13,2013-12-01 17:10:00,
2013-12-01 12:20:00,48.4,32.5,30.18,NE,53,0.0,2.0,54,0.00,,,0.00,Wunderground v.1.13,2013-12-01 17:20:00,
2013-12-01 12:30:00,49.1,32.7,30.17,NE,44,0.0,2.0,53,0.00,,,0.00,Wunderground v.1.13,2013-12-01 17:30:00,
2013-12-01 12:40:00,49.5,31.6,30.17,NE,44,0.0,0.0,50,0.00,,,0.00,Wunderground v.1.13,2013-12-01 17:40:00,
2013-12-01 12:50:00,49.8,33.8,30.17,SSE,149,0.0,0.0,54,0.00,,,0.00,Wunderground v.1.13,2013-12-01 17:50:00,
2013-12-01 13:00:00,50.1,33.6,30.16,WNW,288,1.0,1.0,53,0.00,,,0.00,Wunderground v.1.13,2013-12-01 18:00:00,
2013-12-01 13:10:00,50.7,33.7,30.15,West,280,1.0,1.0,52,0.00,,,0.00,Wunderground v.1.13,2013-12-01 18:10:00,
2013-12-01 13:20:00,51.5,34.4,30.15,SW,215,0.0,0.0,52,0.00,,,0.00,Wunderground v.1.13,2013-12-01 18:20:00,
2013-12-01 13:30:00,51.8,33.7,30.14,NW,304,1.0,1.0,50,0.00,,,0.00,Wunderground v.1.13,2013-12-01 18:30:00,
2013-12-01 13:40:00,51.8,33.7,30.12,SSW,192,1.0,1.0,50,0.00,,,0.00,Wunderground v.1.13,2013-12-01 18:40:00,
2013-12-01 13:50:00,52.7,34.1,30.12,NW,306,1.0,1.0,49,0.00,,,0.00,Wunderground v.1.13,2013-12-01 18:50:00,
2013-12-01 14:00:00,53.4,34.7,30.12,West,261,0.0,0.0,49,0.00,,,0.00,Wunderground v.1.13,2013-12-01 19:00:00,
2013-12-01 14:10:00,53.8,35.1,30.11,WNW,291,0.0,1.0,49,0.00,,,0.00,Wunderground v.1.13,2013-12-01 19:10:00,
2013-12-01 14:20:00,54.1,35.9,30.11,West,278,0.0,0.0,50,0.00,,,0.00,Wunderground v.1.13,2013-12-01 19:20:00,
2013-12-01 14:30:00,54.6,34.8,30.10,West,278,0.0,2.0,47,0.00,,,0.00,Wunderground v.1.13,2013-12-01 19:30:00,
2013-12-01 14:40:00,54.6,34.8,30.09,NNE,30,0.0,1.0,47,0.00,,,0.00,Wunderground v.1.13,2013-12-01 19:40:00,
2013-12-01 14:50:00,55.6,35.7,30.09,NNE,30,0.0,0.0,47,0.00,,,0.00,Wunderground v.1.13,2013-12-01 19:50:00,
2013-12-01 15:00:00,55.6,34.6,30.09,NW,323,0.0,1.0,45,0.00,,,0.00,Wunderground v.1.13,2013-12-01 20:00:00,
2013-12-01 15:10:00,55.5,34.5,30.08,WSW,238,0.0,0.0,45,0.00,,,0.00,Wunderground v.1.13,2013-12-01 20:10:00,
2013-12-01 15:20:00,55.8,33.6,30.08,WNW,283,0.0,0.0,43,0.00,,,0.00,Wunderground v.1.13,2013-12-01 20:20:00,
2013-12-01 15:30:00,56.2,34.6,30.08,SSW,211,0.0,0.0,44,0.00,,,0.00,Wunderground v.1.13,2013-12-01 20:30:00,
2013-12-01 15:40:00,55.3,32.6,30.07,SSW,209,0.0,0.0,42,0.00,,,0.00,Wunderground v.1.13,2013-12-01 20:40:00,
2013-12-01 15:50:00,55.0,33.5,30.07,SSW,209,0.0,1.0,44,0.00,,,0.00,Wunderground v.1.13,2013-12-01 20:50:00,
2013-12-01 16:00:00,54.7,32.6,30.07,West,272,0.0,0.0,43,0.00,,,0.00,Wunderground v.1.13,2013-12-01 21:00:00,
2013-12-01 16:10:00,54.3,32.8,30.07,SW,227,0.0,0.0,44,0.00,,,0.00,Wunderground v.1.13,2013-12-01 21:10:00,
2013-12-01 16:20:00,54.1,32.6,30.07,SW,227,0.0,0.0,44,0.00,,,0.00,Wunderground v.1.13,2013-12-01 21:20:00,
2013-12-01 16:30:00,53.7,32.8,30.07,SW,227,0.0,0.0,45,0.00,,,0.00,Wunderground v.1.13,2013-12-01 21:30:00,
2013-12-01 16:40:00,53.1,34.4,30.07,SW,227,0.0,0.0,49,0.00,,,0.00,Wunderground v.1.13,2013-12-01 21:40:00,
2013-12-01 16:50:00,52.5,34.4,30.07,SW,227,0.0,0.0,50,0.00,,,0.00,Wunderground v.1.13,2013-12-01 21:50:00,
2013-12-01 17:00:00,51.9,34.3,30.06,SW,227,0.0,0.0,51,0.00,,,0.00,Wunderground v.1.13,2013-12-01 22:00:00,
2013-12-01 17:10:00,50.9,34.8,30.06,SW,227,0.0,0.0,54,0.00,,,0.00,Wunderground v.1.13,2013-12-01 22:10:00,
2013-12-01 17:20:00,49.8,34.3,30.06,SW,227,0.0,0.0,55,0.00,,,0.00,Wunderground v.1.13,2013-12-01 22:20:00,
2013-12-01 17:30:00,49.0,33.1,30.06,SW,227,0.0,0.0,54,0.00,,,0.00,Wunderground v.1.13,2013-12-01 22:30:00,
2013-12-01 17:40:00,48.4,33.0,30.06,SW,227,0.0,0.0,55,0.00,,,0.00,Wunderground v.1.13,2013-12-01 22:40:00,
2013-12-01 17:50:00,48.1,34.4,30.06,SW,227,0.0,0.0,59,0.00,,,0.00,Wunderground v.1.13,2013-12-01 22:50:00,
2013-12-01 18:00:00,47.6,34.8,30.06,SW,227,0.0,0.0,61,0.00,,,0.00,Wunderground v.1.13,2013-12-01 23:00:00,
2013-12-01 18:10:00,47.3,36.1,30.06,SW,227,0.0,0.0,65,0.00,,,0.00,Wunderground v.1.13,2013-12-01 23:10:00,
2013-12-01 18:20:00,47.2,36.0,30.06,SW,227,0.0,0.0,65,0.00,,,0.00,Wunderground v.1.13,2013-12-01 23:20:00,
2013-12-01 18:30:00,46.9,36.5,30.05,SW,227,0.0,0.0,67,0.00,,,0.00,Wunderground v.1.13,2013-12-01 23:30:00,
2013-12-01 18:40:00,46.6,37.0,30.05,SW,227,0.0,0.0,69,0.00,,,0.00,Wunderground v.1.13,2013-12-01 23:40:00,
2013-12-01 18:50:00,46.4,36.8,30.05,SW,227,0.0,0.0,69,0.00,,,0.00,Wunderground v.1.13,2013-12-01 23:50:00,
2013-12-01 19:00:00,46.1,37.2,30.05,SW,227,0.0,0.0,71,0.00,,,0.00,Wunderground v.1.13,2013-12-02 00:00:00,
2013-12-01 19:10:00,46.0,37.5,30.05,SW,227,0.0,0.0,72,0.00,,,0.00,Wunderground v.1.13,2013-12-02 00:10:00,
2013-12-01 19:20:00,45.9,35.9,30.05,SW,227,0.0,0.0,68,0.00,,,0.00,Wunderground v.1.13,2013-12-02 00:20:00,
2013-12-01 19:30:00,46.1,34.6,30.05,SW,227,0.0,0.0,64,0.00,,,0.00,Wunderground v.1.13,2013-12-02 00:30:00,
2013-12-01 19:40:00,46.7,35.6,30.04,SW,227,0.0,0.0,65,0.00,,,0.00,Wunderground v.1.13,2013-12-02 00:40:00,
2013-12-01 19:50:00,46.7,35.2,30.04,SW,227,0.0,0.0,64,0.00,,,0.00,Wunderground v.1.13,2013-12-02 00:50:00,
2013-12-01 20:00:00,46.7,35.9,30.03,SW,227,0.0,0.0,66,0.00,,,0.00,Wunderground v.1.13,2013-12-02 01:00:00,
2013-12-01 20:10:00,46.4,35.7,30.03,SW,227,0.0,0.0,66,0.00,,,0.00,Wunderground v.1.13,2013-12-02 01:10:00,
2013-12-01 20:20:00,46.4,35.7,30.03,SW,227,0.0,0.0,66,0.00,,,0.00,Wunderground v.1.13,2013-12-02 01:20:00,
2013-12-01 20:30:00,46.4,35.3,30.03,SW,227,0.0,0.0,65,0.00,,,0.00,Wunderground v.1.13,2013-12-02 01:30:00,
2013-12-01 20:40:00,46.6,36.2,30.03,SW,227,0.0,0.0,67,0.00,,,0.00,Wunderground v.1.13,2013-12-02 01:40:00,
2013-12-01 20:50:00,46.4,36.0,30.03,SW,227,0.0,0.0,67,0.00,,,0.00,Wunderground v.1.13,2013-12-02 01:50:00,
2013-12-01 21:00:00,46.1,35.7,30.03,SW,227,0.0,0.0,67,0.00,,,0.00,Wunderground v.1.13,2013-12-02 02:00:00,
2013-12-01 21:10:00,46.3,36.3,30.02,SW,227,0.0,0.0,68,0.00,,,0.00,Wunderground v.1.13,2013-12-02 02:10:00,
2013-12-01 21:20:00,46.1,36.5,30.02,SW,227,0.0,0.0,69,0.00,,,0.00,Wunderground v.1.13,2013-12-02 02:20:00,
2013-12-01 21:30:00,46.3,37.4,30.02,SW,227,0.0,0.0,71,0.00,,,0.00,Wunderground v.1.13,2013-12-02 02:30:00,
2013-12-01 21:40:00,46.1,37.2,30.01,SW,227,0.0,0.0,71,0.00,,,0.00,Wunderground v.1.13,2013-12-02 02:40:00,
2013-12-01 21:50:00,45.9,36.7,30.01,SW,227,0.0,0.0,70,0.00,,,0.00,Wunderground v.1.13,2013-12-02 02:50:00,
2013-12-01 22:00:00,45.7,36.5,30.01,SW,227,0.0,0.0,70,0.00,,,0.00,Wunderground v.1.13,2013-12-02 03:00:00,
2013-12-01 22:10:00,45.6,36.4,30.01,SW,227,0.0,0.0,70,0.00,,,0.00,Wunderground v.1.13,2013-12-02 03:10:00,
2013-12-01 22:20:00,45.4,36.9,30.01,SW,227,0.0,0.0,72,0.00,,,0.00,Wunderground v.1.13,2013-12-02 03:20:00,
2013-12-01 22:30:00,45.3,36.4,30.01,SW,227,0.0,0.0,71,0.00,,,0.00,Wunderground v.1.13,2013-12-02 03:30:00,
2013-12-01 22:40:00,45.1,36.3,30.00,SW,227,0.0,0.0,71,0.00,,,0.00,Wunderground v.1.13,2013-12-02 03:40:00,
2013-12-01 22:50:00,45.0,36.9,30.00,SW,227,0.0,0.0,73,0.00,,,0.00,Wunderground v.1.13,2013-12-02 03:50:00,
2013-12-01 23:00:00,44.8,37.0,30.00,SW,227,0.0,0.0,74,0.00,,,0.00,Wunderground v.1.13,2013-12-02 04:00:00,
2013-12-01 23:10:00,44.7,36.6,29.99,SW,227,0.0,0.0,73,0.00,,,0.00,Wunderground v.1.13,2013-12-02 04:10:00,
2013-12-01 23:20:00,44.5,36.4,29.99,SW,227,0.0,0.0,73,0.00,,,0.00,Wunderground v.1.13,2013-12-02 04:20:00,
2013-12-01 23:30:00,44.5,37.1,29.99,SW,227,0.0,0.0,75,0.00,,,0.00,Wunderground v.1.13,2013-12-02 04:30:00,
2013-12-01 23:40:00,44.4,36.6,29.98,SW,227,0.0,0.0,74,0.00,,,0.00,Wunderground v.1.13,2013-12-02 04:40:00,
2013-12-01 23:50:00,44.2,36.4,29.98,SW,227,0.0,0.0,74,0.00,,,0.00,Wunderground v.1.13,2013-12-02 04:50:00,